createdAt,value
2017-09-15T00:00:17.762Z,2.7
2017-09-15T00:01:23.157Z,2.9
2017-09-15T00:02:29.833Z,2.7
2017-09-15T00:03:39.108Z,2.9
2017-09-15T00:04:47.158Z,3.2
2017-09-15T00:05:56.681Z,3.2
2017-09-15T00:07:04.115Z,3.0
2017-09-15T00:08:14.638Z,3.4
2017-09-15T00:09:26.159Z,3.4
2017-09-15T00:10:36.607Z,3.5
2017-09-15T00:11:41.197Z,3.5
2017-09-15T00:12:46.427Z,3.4
2017-09-15T00:13:53.162Z,3.8
2017-09-15T00:14:58.220Z,4.0
2017-09-15T00:16:04.617Z,3.4
2017-09-15T00:17:11.677Z,3.0
2017-09-15T00:18:23.117Z,3.2
2017-09-15T00:19:31.162Z,2.9
2017-09-15T00:20:39.107Z,2.9
2017-09-15T00:21:44.282Z,2.9
2017-09-15T00:22:51.742Z,2.8
2017-09-15T00:24:00.608Z,2.8
2017-09-15T00:25:08.261Z,3.0
2017-09-15T00:26:16.336Z,2.8
2017-09-15T00:27:24.681Z,2.9
2017-09-15T00:28:29.876Z,2.3
2017-09-15T00:29:37.113Z,2.4
2017-09-15T00:30:42.234Z,2.4
2017-09-15T00:31:48.607Z,2.3
2017-09-15T00:32:54.108Z,2.7
2017-09-15T00:34:02.607Z,2.8
2017-09-15T00:35:09.697Z,2.9
2017-09-15T00:36:17.191Z,2.8
2017-09-15T00:37:24.608Z,3.3
2017-09-15T00:38:29.613Z,3.2
2017-09-15T00:39:35.166Z,2.9
2017-09-15T00:40:41.640Z,3.3
2017-09-15T00:41:45.499Z,2.9
2017-09-15T00:42:52.107Z,3.0
2017-09-15T00:43:58.036Z,3.1
2017-09-15T00:45:03.654Z,3.0
2017-09-15T00:46:11.605Z,3.6
2017-09-15T00:47:15.781Z,3.1
2017-09-15T00:48:22.280Z,3.3
2017-09-15T00:49:30.812Z,3.3
2017-09-15T00:50:36.743Z,3.5
2017-09-15T00:51:45.732Z,4.0
2017-09-15T00:52:51.159Z,4.4
2017-09-15T00:53:56.168Z,3.9
2017-09-15T00:55:02.242Z,4.3
2017-09-15T00:56:04.604Z,4.9
2017-09-15T00:57:09.115Z,4.8
2017-09-15T00:58:15.078Z,4.8
2017-09-15T00:59:19.015Z,4.4
2017-09-15T01:00:20.934Z,4.8
2017-09-15T01:01:22.590Z,5.0
2017-09-15T01:02:25.408Z,4.8
2017-09-15T01:03:29.192Z,4.7
2017-09-15T01:04:33.602Z,5.6
2017-09-15T01:05:35.755Z,5.4
2017-09-15T01:06:37.304Z,4.7
2017-09-15T01:07:39.818Z,4.7
2017-09-15T01:08:42.698Z,4.7
2017-09-15T01:09:46.111Z,4.7
2017-09-15T01:10:47.616Z,4.9
2017-09-15T01:11:51.115Z,4.1
2017-09-15T01:12:53.141Z,4.7
2017-09-15T01:13:54.989Z,4.9
2017-09-15T01:14:57.196Z,4.7
2017-09-15T01:15:59.810Z,4.8
2017-09-15T01:17:02.901Z,5.3
2017-09-15T01:18:06.249Z,5.2
2017-09-15T01:19:09.224Z,5.1
2017-09-15T01:20:13.216Z,4.7
2017-09-15T01:21:17.275Z,5.8
2017-09-15T01:22:21.611Z,5.6
2017-09-15T01:23:25.472Z,5.2
2017-09-15T01:24:28.768Z,5.8
2017-09-15T01:25:30.421Z,5.7
2017-09-15T01:26:34.210Z,5.8
2017-09-15T01:27:37.438Z,5.3
2017-09-15T01:28:39.611Z,6.4
2017-09-15T01:29:41.434Z,6.4
2017-09-15T01:30:43.778Z,6.3
2017-09-15T01:31:46.790Z,5.9
2017-09-15T01:32:49.832Z,5.8
2017-09-15T01:33:51.946Z,5.5
2017-09-15T01:34:53.602Z,4.8
2017-09-15T01:35:55.252Z,4.1
2017-09-15T01:36:58.292Z,5.6
2017-09-15T01:38:01.488Z,5.1
2017-09-15T01:39:03.928Z,5.5
2017-09-15T01:40:07.184Z,5.3
2017-09-15T01:41:10.781Z,5.3
2017-09-15T01:42:15.171Z,5.5
2017-09-15T01:43:16.825Z,5.4
2017-09-15T01:44:19.778Z,4.4
2017-09-15T01:45:23.111Z,5.1
2017-09-15T01:46:26.012Z,5.4
2017-09-15T01:47:29.460Z,5.5
2017-09-15T01:48:32.607Z,5.2
2017-09-15T01:49:35.774Z,5.3
2017-09-15T01:50:38.246Z,5.4
2017-09-15T01:51:39.909Z,5.0
2017-09-15T01:52:42.256Z,5.1
2017-09-15T01:53:45.616Z,6.0
2017-09-15T01:54:47.261Z,4.7
2017-09-15T01:55:49.483Z,5.1
2017-09-15T02:01:49.821Z,3.7
2017-09-15T02:02:52.414Z,5.3
2017-09-15T02:03:54.991Z,5.6
2017-09-15T02:04:57.742Z,5.8
2017-09-15T02:06:00.813Z,6.2
2017-09-15T02:07:03.902Z,5.8
2017-09-15T02:08:07.275Z,5.5
2017-09-15T02:09:10.383Z,5.5
2017-09-15T02:10:14.285Z,6.0
2017-09-15T02:11:18.400Z,6.3
2017-09-15T02:12:22.429Z,6.1
2017-09-15T02:13:25.856Z,6.8
2017-09-15T02:14:28.998Z,6.6
2017-09-15T02:15:32.137Z,6.8
2017-09-15T02:16:35.820Z,6.2
2017-09-15T02:17:37.469Z,6.9
2017-09-15T02:18:39.581Z,7.4
2017-09-15T02:19:44.319Z,8.4
2017-09-15T02:20:47.362Z,8.3
2017-09-15T02:21:51.279Z,7.8
2017-09-15T02:22:53.581Z,8.5
2017-09-15T02:23:56.480Z,8.0
2017-09-15T02:24:59.893Z,8.4
2017-09-15T02:26:02.943Z,8.2
2017-09-15T02:27:06.199Z,8.8
2017-09-15T02:28:10.433Z,8.6
2017-09-15T02:29:15.731Z,8.6
2017-09-15T02:30:18.163Z,8.1
2017-09-15T02:31:21.232Z,7.5
2017-09-15T02:32:24.458Z,8.8
2017-09-15T02:33:29.732Z,7.9
2017-09-15T02:34:32.810Z,8.4
2017-09-15T02:35:36.767Z,7.8
2017-09-15T02:36:39.803Z,8.6
2017-09-15T02:37:42.122Z,9.1
2017-09-15T02:38:45.848Z,9.3
2017-09-15T02:39:49.857Z,9.1
2017-09-15T02:40:53.232Z,9.6
2017-09-15T02:41:56.931Z,9.3
2017-09-15T02:43:01.787Z,8.6
2017-09-15T02:44:04.314Z,10.0
2017-09-15T02:45:06.723Z,11.0
2017-09-15T02:46:10.929Z,10.7
2017-09-15T02:47:15.126Z,10.7
2017-09-15T02:48:17.531Z,10.6
2017-09-15T02:49:19.884Z,11.0
2017-09-15T02:50:23.962Z,10.8
2017-09-15T02:51:27.601Z,11.2
2017-09-15T02:52:31.338Z,11.4
2017-09-15T02:53:34.338Z,10.9
2017-09-15T02:54:37.231Z,11.6
2017-09-15T02:55:40.810Z,10.9
2017-09-15T02:56:44.733Z,11.5
2017-09-15T02:57:46.999Z,12.0
2017-09-15T02:58:50.350Z,11.8
2017-09-15T02:59:54.789Z,13.1
2017-09-15T03:00:57.908Z,12.0
2017-09-15T03:02:00.387Z,12.0
2017-09-15T03:03:03.360Z,12.6
2017-09-15T03:04:05.754Z,11.9
2017-09-15T03:05:11.732Z,13.0
2017-09-15T03:06:14.418Z,13.7
2017-09-15T03:07:18.469Z,13.5
2017-09-15T03:08:20.110Z,14.3
2017-09-15T03:09:23.326Z,14.1
2017-09-15T03:10:26.737Z,14.0
2017-09-15T03:11:27.837Z,14.4
2017-09-15T03:12:32.459Z,14.4
2017-09-15T03:13:35.331Z,15.1
2017-09-15T03:14:37.735Z,14.7
2017-09-15T03:15:40.788Z,15.5
2017-09-15T03:16:44.920Z,16.5
2017-09-15T03:17:46.570Z,16.6
2017-09-15T03:18:49.823Z,17.1
2017-09-15T03:19:52.807Z,18.4
2017-09-15T03:20:55.969Z,18.3
2017-09-15T03:21:59.104Z,17.6
2017-09-15T03:23:02.307Z,20.4
2017-09-15T03:24:05.738Z,19.0
2017-09-15T03:25:08.957Z,18.9
2017-09-15T03:26:13.073Z,17.3
2017-09-15T03:27:16.031Z,19.1
2017-09-15T03:28:20.843Z,17.9
2017-09-15T03:29:25.039Z,18.4
2017-09-15T03:30:27.342Z,19.9
2017-09-15T03:31:29.572Z,19.8
2017-09-15T03:32:31.900Z,20.2
2017-09-15T03:33:38.734Z,20.1
2017-09-15T03:34:40.035Z,20.0
2017-09-15T03:35:44.892Z,18.4
2017-09-15T03:36:47.247Z,18.3
2017-09-15T03:37:48.898Z,18.6
2017-09-15T03:38:51.291Z,19.0
2017-09-15T03:39:55.235Z,16.9
2017-09-15T03:40:55.998Z,16.9
2017-09-15T03:41:57.649Z,17.9
2017-09-15T03:42:59.804Z,19.4
2017-09-15T03:44:03.931Z,19.3
2017-09-15T03:45:08.290Z,18.4
2017-09-15T03:46:12.161Z,19.2
2017-09-15T03:47:14.726Z,20.1
2017-09-15T03:48:17.237Z,21.3
2017-09-15T03:49:20.837Z,21.2
2017-09-15T03:50:23.306Z,21.4
2017-09-15T03:51:26.666Z,19.3
2017-09-15T03:52:29.262Z,20.4
2017-09-15T03:53:32.012Z,20.5
2017-09-15T03:54:35.352Z,20.8
2017-09-15T03:55:38.453Z,19.2
2017-09-15T03:56:42.436Z,21.8
2017-09-15T03:57:46.516Z,18.7
2017-09-15T03:58:49.673Z,19.4
2017-09-15T03:59:52.739Z,21.9
2017-09-15T04:00:57.738Z,21.0
2017-09-15T04:02:00.742Z,18.9
2017-09-15T04:03:04.125Z,20.2
2017-09-15T04:04:06.808Z,21.2
2017-09-15T04:05:10.990Z,21.2
2017-09-15T04:06:13.856Z,21.3
2017-09-15T04:07:16.114Z,22.5
2017-09-15T04:08:18.555Z,22.9
2017-09-15T04:09:22.447Z,23.9
2017-09-15T04:10:25.906Z,22.2
2017-09-15T04:11:28.856Z,23.4
2017-09-15T04:12:31.343Z,24.3
2017-09-15T04:13:33.953Z,23.7
2017-09-15T04:14:37.561Z,24.8
2017-09-15T04:15:41.025Z,24.9
2017-09-15T04:16:44.012Z,25.1
2017-09-15T04:17:46.398Z,24.7
2017-09-15T04:18:48.807Z,25.1
2017-09-15T04:19:54.884Z,23.8
2017-09-15T04:20:58.802Z,24.9
2017-09-15T04:22:02.008Z,22.8
2017-09-15T04:23:05.648Z,23.2
2017-09-15T04:24:09.057Z,23.4
2017-09-15T04:25:11.654Z,19.4
2017-09-15T04:26:15.741Z,20.5
2017-09-15T04:27:16.964Z,19.9
2017-09-15T04:28:18.614Z,20.9
2017-09-15T04:29:23.305Z,21.0
2017-09-15T04:30:27.242Z,21.4
2017-09-15T04:31:28.595Z,21.8
2017-09-15T04:32:33.647Z,21.2
2017-09-15T04:33:36.583Z,22.4
2017-09-15T04:34:43.353Z,23.8
2017-09-15T04:35:49.355Z,23.6
2017-09-15T04:36:52.560Z,24.3
2017-09-15T04:37:54.970Z,21.4
2017-09-15T04:38:59.847Z,23.2
2017-09-15T04:40:03.743Z,25.2
2017-09-15T04:41:08.539Z,24.9
2017-09-15T04:42:14.239Z,25.8
2017-09-15T04:43:15.524Z,24.8
2017-09-15T04:44:19.240Z,25.6
2017-09-15T04:45:22.787Z,26.0
2017-09-15T04:46:25.217Z,27.1
2017-09-15T04:47:26.871Z,26.0
2017-09-15T04:48:30.299Z,24.9
2017-09-15T04:49:33.463Z,26.1
2017-09-15T04:50:37.465Z,26.5
2017-09-15T04:51:39.117Z,25.3
2017-09-15T04:52:41.705Z,25.9
2017-09-15T04:53:43.860Z,26.7
2017-09-15T04:54:47.941Z,26.7
2017-09-15T04:55:51.576Z,24.4
2017-09-15T04:56:53.815Z,25.6
2017-09-15T04:57:57.767Z,26.4
2017-09-15T04:59:01.244Z,25.2
2017-09-15T05:00:04.799Z,26.0
2017-09-15T05:01:08.916Z,21.9
2017-09-15T05:02:12.012Z,23.2
2017-09-15T05:03:13.683Z,23.0
2017-09-15T05:04:20.240Z,20.1
2017-09-15T05:05:25.380Z,22.0
2017-09-15T05:06:28.003Z,26.7
2017-09-15T05:07:32.288Z,25.0
2017-09-15T05:08:35.410Z,23.1
2017-09-15T05:09:37.077Z,22.2
2017-09-15T05:10:39.499Z,21.9
2017-09-15T05:11:42.608Z,20.8
2017-09-15T05:12:44.853Z,21.4
2017-09-15T05:13:49.863Z,20.7
2017-09-15T05:14:54.741Z,19.6
2017-09-15T05:15:56.860Z,19.6
2017-09-15T05:16:59.893Z,20.0
2017-09-15T05:18:02.245Z,20.4
2017-09-15T05:19:05.203Z,20.4
2017-09-15T05:20:08.334Z,19.0
2017-09-15T05:21:10.562Z,19.7
2017-09-15T05:22:13.365Z,17.4
2017-09-15T05:23:16.544Z,16.6
2017-09-15T05:24:19.561Z,14.9
2017-09-15T05:25:23.246Z,16.1
2017-09-15T05:26:25.321Z,15.0
2017-09-15T05:27:29.533Z,15.8
2017-09-15T05:28:32.675Z,15.5
2017-09-15T05:29:34.965Z,16.1
2017-09-15T05:30:37.560Z,14.7
2017-09-15T05:31:41.567Z,16.2
2017-09-15T05:32:46.245Z,15.2
2017-09-15T05:33:49.749Z,16.3
2017-09-15T05:34:52.548Z,17.7
2017-09-15T05:35:55.908Z,17.7
2017-09-15T05:37:01.382Z,18.8
2017-09-15T05:38:09.251Z,17.5
2017-09-15T05:39:11.743Z,18.8
2017-09-15T05:40:15.778Z,18.4
2017-09-15T05:41:18.181Z,21.0
2017-09-15T05:42:19.828Z,21.1
2017-09-15T05:43:24.812Z,19.9
2017-09-15T05:44:27.004Z,20.2
2017-09-15T05:45:30.542Z,21.7
2017-09-15T05:46:32.580Z,18.0
2017-09-15T05:47:35.824Z,18.5
2017-09-15T05:48:39.852Z,15.4
2017-09-15T05:49:42.096Z,15.6
2017-09-15T05:50:46.570Z,16.3
2017-09-15T05:51:48.226Z,17.1
2017-09-15T05:52:50.601Z,18.8
2017-09-15T05:53:55.352Z,18.9
2017-09-15T05:54:59.806Z,19.0
2017-09-15T06:01:23.236Z,15.0
2017-09-15T06:02:25.581Z,16.8
2017-09-15T06:03:28.775Z,17.3
2017-09-15T06:04:30.462Z,17.3
2017-09-15T06:05:33.437Z,17.9
2017-09-15T06:06:37.386Z,18.5
2017-09-15T06:07:40.975Z,17.3
2017-09-15T06:08:44.017Z,16.5
2017-09-15T06:09:48.925Z,18.9
2017-09-15T06:10:51.776Z,16.9
2017-09-15T06:11:55.882Z,16.8
2017-09-15T06:12:57.547Z,18.0
2017-09-15T06:14:01.404Z,16.5
2017-09-15T06:15:04.659Z,17.1
2017-09-15T06:16:06.924Z,18.3
2017-09-15T06:17:10.333Z,13.9
2017-09-15T06:18:13.874Z,14.9
2017-09-15T06:19:15.532Z,14.1
2017-09-15T06:20:19.555Z,15.3
2017-09-15T06:21:23.725Z,12.9
2017-09-15T06:22:26.144Z,15.1
2017-09-15T06:23:27.831Z,13.7
2017-09-15T06:24:31.939Z,14.6
2017-09-15T06:25:37.508Z,17.7
2017-09-15T06:26:41.514Z,13.7
2017-09-15T06:27:45.026Z,14.2
2017-09-15T06:28:48.013Z,14.3
2017-09-15T06:29:50.849Z,13.4
2017-09-15T06:30:55.404Z,12.0
2017-09-15T06:31:57.869Z,10.9
2017-09-15T06:32:59.534Z,11.5
2017-09-15T06:34:02.782Z,10.5
2017-09-15T06:35:04.436Z,10.0
2017-09-15T06:36:08.272Z,9.6
2017-09-15T06:37:12.335Z,9.2
2017-09-15T06:38:14.005Z,9.4
2017-09-15T06:39:18.729Z,10.0
2017-09-15T06:40:20.379Z,8.8
2017-09-15T06:41:22.971Z,9.4
2017-09-15T06:42:26.228Z,9.2
2017-09-15T06:43:28.826Z,8.2
2017-09-15T06:44:35.227Z,8.5
2017-09-15T06:45:40.871Z,7.6
2017-09-15T06:46:44.886Z,7.5
2017-09-15T06:47:49.422Z,7.2
2017-09-15T06:48:52.442Z,7.7
2017-09-15T06:49:57.450Z,7.4
2017-09-15T06:51:01.027Z,6.6
2017-09-15T06:52:04.095Z,6.4
2017-09-15T06:53:07.011Z,5.6
2017-09-15T06:54:10.801Z,5.4
2017-09-15T06:55:13.343Z,5.5
2017-09-15T06:56:18.228Z,5.5
2017-09-15T06:57:23.736Z,5.4
2017-09-15T06:58:26.126Z,5.0
2017-09-15T06:59:27.809Z,5.8
2017-09-15T07:00:30.684Z,5.6
2017-09-15T07:01:33.867Z,5.5
2017-09-15T07:02:36.036Z,5.4
2017-09-15T07:03:38.790Z,5.6
2017-09-15T07:04:42.032Z,5.4
2017-09-15T07:05:47.846Z,5.4
2017-09-15T07:06:52.050Z,4.4
2017-09-15T07:07:54.244Z,5.1
2017-09-15T07:08:56.803Z,5.3
2017-09-15T07:10:01.450Z,5.5
2017-09-15T07:11:03.802Z,5.0
2017-09-15T07:12:06.889Z,6.2
2017-09-15T07:13:10.950Z,5.4
2017-09-15T07:14:14.232Z,5.1
2017-09-15T07:15:15.915Z,5.5
2017-09-15T07:16:19.284Z,5.8
2017-09-15T07:17:21.516Z,5.8
2017-09-15T07:18:24.271Z,5.5
2017-09-15T07:19:28.028Z,4.9
2017-09-15T07:20:31.333Z,5.1
2017-09-15T07:21:33.645Z,5.0
2017-09-15T07:22:35.952Z,5.4
2017-09-15T07:23:40.175Z,4.9
2017-09-15T07:24:43.948Z,5.1
2017-09-15T07:25:46.598Z,4.7
2017-09-15T07:26:49.689Z,5.3
2017-09-15T07:27:53.467Z,5.0
2017-09-15T07:28:55.133Z,5.6
2017-09-15T07:29:58.853Z,5.3
2017-09-15T07:31:02.887Z,5.4
2017-09-15T07:32:07.988Z,5.4
2017-09-15T07:33:11.065Z,5.2
2017-09-15T07:34:15.796Z,4.8
2017-09-15T07:35:18.114Z,5.6
2017-09-15T07:36:22.735Z,5.9
2017-09-15T07:37:24.281Z,5.6
2017-09-15T07:38:25.934Z,6.6
2017-09-15T07:39:29.444Z,6.6
2017-09-15T07:40:31.832Z,6.4
2017-09-15T07:41:36.602Z,5.6
2017-09-15T07:42:39.771Z,4.8
2017-09-15T07:43:41.425Z,5.5
2017-09-15T07:44:46.354Z,5.7
2017-09-15T07:45:49.537Z,5.7
2017-09-15T07:46:53.733Z,5.6
2017-09-15T07:47:54.916Z,5.6
2017-09-15T07:48:58.268Z,5.1
2017-09-15T07:50:00.023Z,4.5
2017-09-15T07:51:01.685Z,4.3
2017-09-15T07:52:04.741Z,5.0
2017-09-15T07:53:06.322Z,4.8
2017-09-15T07:54:11.819Z,5.0
2017-09-15T07:55:13.471Z,4.0
2017-09-15T07:56:15.129Z,3.7
2017-09-15T07:57:18.795Z,4.2
2017-09-15T07:58:21.368Z,4.0
2017-09-15T07:59:23.736Z,4.6
2017-09-15T08:00:26.585Z,4.2
2017-09-15T08:01:29.676Z,4.6
2017-09-15T08:02:32.739Z,5.2
2017-09-15T08:03:35.743Z,4.6
2017-09-15T08:04:39.058Z,4.2
2017-09-15T08:05:41.398Z,5.4
2017-09-15T08:06:44.419Z,4.4
2017-09-15T08:07:48.850Z,4.4
2017-09-15T08:08:51.531Z,3.9
2017-09-15T08:09:55.797Z,3.6
2017-09-15T08:10:58.318Z,3.4
2017-09-15T08:12:01.814Z,3.8
2017-09-15T08:13:04.390Z,3.7
2017-09-15T08:14:07.456Z,3.5
2017-09-15T08:15:09.124Z,3.2
2017-09-15T08:16:13.775Z,3.4
2017-09-15T08:17:14.604Z,3.4
2017-09-15T08:18:19.316Z,3.4
2017-09-15T08:19:20.996Z,3.6
2017-09-15T08:20:23.490Z,3.2
2017-09-15T08:21:25.864Z,3.4
2017-09-15T08:22:28.118Z,3.9
2017-09-15T08:23:31.531Z,2.9
2017-09-15T08:24:34.063Z,3.4
2017-09-15T08:25:40.625Z,3.3
2017-09-15T08:26:44.240Z,2.5
2017-09-15T08:27:46.811Z,2.7
2017-09-15T08:28:49.937Z,2.9
2017-09-15T08:29:53.234Z,2.7
2017-09-15T08:30:57.483Z,3.3
2017-09-15T08:32:01.307Z,2.4
2017-09-15T08:33:02.975Z,2.8
2017-09-15T08:34:05.918Z,2.5
2017-09-15T08:35:09.830Z,2.7
2017-09-15T08:36:14.397Z,2.3
2017-09-15T08:37:18.790Z,2.4
2017-09-15T08:38:21.329Z,2.5
2017-09-15T08:39:24.356Z,2.6
2017-09-15T08:40:26.926Z,2.3
2017-09-15T08:41:31.007Z,2.8
2017-09-15T08:42:32.689Z,2.9
2017-09-15T08:43:34.990Z,2.6
2017-09-15T08:44:38.383Z,2.5
2017-09-15T08:45:43.245Z,2.8
2017-09-15T08:46:44.913Z,2.9
2017-09-15T08:47:47.389Z,2.7
2017-09-15T08:48:50.806Z,2.5
2017-09-15T08:49:55.310Z,2.7
2017-09-15T08:50:57.589Z,2.2
2017-09-15T08:52:00.816Z,2.8
2017-09-15T08:53:03.882Z,2.7
2017-09-15T08:54:07.838Z,2.8
2017-09-15T08:55:09.518Z,2.7
2017-09-15T08:56:12.954Z,3.1
2017-09-15T08:57:15.539Z,2.9
2017-09-15T08:58:19.394Z,2.5
2017-09-15T08:59:24.491Z,2.8
2017-09-15T09:00:27.945Z,2.7
2017-09-15T09:01:30.379Z,2.9
2017-09-15T09:02:32.950Z,3.0
2017-09-15T09:03:35.582Z,2.6
2017-09-15T09:04:37.819Z,2.5
2017-09-15T09:05:41.907Z,2.4
2017-09-15T09:06:43.576Z,2.5
2017-09-15T09:07:47.581Z,2.9
2017-09-15T09:08:50.731Z,2.8
2017-09-15T09:09:53.251Z,3.0
2017-09-15T09:10:55.897Z,3.0
2017-09-15T09:11:59.566Z,3.3
2017-09-15T09:13:02.812Z,2.9
2017-09-15T09:14:07.439Z,2.7
2017-09-15T09:15:09.983Z,2.7
2017-09-15T09:16:12.509Z,2.8
2017-09-15T09:17:15.901Z,2.4
2017-09-15T09:18:20.022Z,2.3
2017-09-15T09:19:24.323Z,2.6
2017-09-15T09:20:26.584Z,1.9
2017-09-15T09:21:31.376Z,3.0
2017-09-15T09:22:34.824Z,2.4
2017-09-15T09:23:39.458Z,2.5
2017-09-15T09:24:46.251Z,2.9
2017-09-15T09:25:49.250Z,2.9
2017-09-15T09:26:51.577Z,2.5
2017-09-15T09:27:53.918Z,2.2
2017-09-15T09:28:56.252Z,2.6
2017-09-15T09:29:58.864Z,3.0
2017-09-15T09:31:02.375Z,2.7
2017-09-15T09:32:06.444Z,4.0
2017-09-15T09:33:08.756Z,3.0
2017-09-15T09:34:10.165Z,3.3
2017-09-15T09:35:15.445Z,2.6
2017-09-15T09:36:18.762Z,3.3
2017-09-15T09:37:21.753Z,3.0
2017-09-15T09:38:24.214Z,3.1
2017-09-15T09:39:26.643Z,2.6
2017-09-15T09:40:29.097Z,2.9
2017-09-15T09:41:31.659Z,2.8
2017-09-15T09:42:35.001Z,3.3
2017-09-15T09:43:37.351Z,2.8
2017-09-15T09:44:40.256Z,3.1
2017-09-15T09:45:44.269Z,2.8
2017-09-15T09:46:47.755Z,5.1
2017-09-15T09:47:49.330Z,3.3
2017-09-15T09:48:52.396Z,2.9
2017-09-15T09:49:54.837Z,4.1
2017-09-15T09:50:57.013Z,2.5
2017-09-15T09:52:00.309Z,2.4
2017-09-15T09:53:03.145Z,2.7
2017-09-15T09:54:06.217Z,2.6
2017-09-15T09:55:10.260Z,2.8
2017-09-15T10:01:06.815Z,4.1
2017-09-15T10:02:10.175Z,3.3
2017-09-15T10:03:13.277Z,2.9
2017-09-15T10:04:15.838Z,2.4
2017-09-15T10:05:18.960Z,3.0
2017-09-15T10:06:22.505Z,2.8
2017-09-15T10:07:25.924Z,2.8
2017-09-15T10:08:29.104Z,2.3
2017-09-15T10:09:42.715Z,2.8
2017-09-15T10:10:46.523Z,3.9
2017-09-15T10:11:49.771Z,2.5
2017-09-15T10:12:53.582Z,2.6
2017-09-15T10:13:58.360Z,2.4
2017-09-15T10:15:02.715Z,2.6
2017-09-15T10:16:05.215Z,3.2
2017-09-15T10:17:06.874Z,2.9
2017-09-15T10:18:11.831Z,2.7
2017-09-15T10:19:14.717Z,2.4
2017-09-15T10:20:18.890Z,2.7
2017-09-15T10:21:22.776Z,2.7
2017-09-15T10:22:24.362Z,3.8
2017-09-15T10:23:26.567Z,4.3
2017-09-15T10:24:28.234Z,3.8
2017-09-15T10:25:30.635Z,3.1
2017-09-15T10:26:32.315Z,3.4
2017-09-15T10:27:36.245Z,5.5
2017-09-15T10:28:38.752Z,5.2
2017-09-15T10:29:42.021Z,3.9
2017-09-15T10:30:46.610Z,3.2
2017-09-15T10:31:49.578Z,3.1
2017-09-15T10:32:53.657Z,2.6
2017-09-15T10:33:55.329Z,3.2
2017-09-15T10:34:59.343Z,3.5
2017-09-15T10:36:02.464Z,3.3
2017-09-15T10:37:05.109Z,3.3
2017-09-15T10:38:08.276Z,3.1
2017-09-15T10:39:08.962Z,2.9
2017-09-15T10:40:12.273Z,2.9
2017-09-15T10:41:15.940Z,3.7
2017-09-15T10:42:19.346Z,3.3
2017-09-15T10:43:21.976Z,3.1
2017-09-15T10:44:27.280Z,3.3
2017-09-15T10:45:28.086Z,4.2
2017-09-15T10:46:32.175Z,3.0
2017-09-15T10:47:33.840Z,3.0
2017-09-15T10:48:38.831Z,3.1
2017-09-15T10:49:40.487Z,3.3
2017-09-15T10:50:43.740Z,3.1
2017-09-15T10:51:46.947Z,2.9
2017-09-15T10:52:51.454Z,2.8
2017-09-15T10:53:53.847Z,3.0
2017-09-15T10:54:58.010Z,2.9
2017-09-15T10:55:59.670Z,2.6
2017-09-15T10:57:03.579Z,3.5
2017-09-15T10:58:06.505Z,3.5
2017-09-15T10:59:11.423Z,2.6
2017-09-15T11:00:13.087Z,3.0
2017-09-15T11:01:16.917Z,2.3
2017-09-15T11:02:19.184Z,2.7
2017-09-15T11:03:24.993Z,4.1
2017-09-15T11:04:29.614Z,3.6
2017-09-15T11:05:32.577Z,3.0
2017-09-15T11:06:34.835Z,2.9
2017-09-15T11:07:39.495Z,3.4
2017-09-15T11:08:44.878Z,3.3
2017-09-15T11:09:50.366Z,3.0
2017-09-15T11:10:54.066Z,3.0
2017-09-15T11:11:58.781Z,2.9
2017-09-15T11:12:59.741Z,2.7
2017-09-15T11:14:02.949Z,2.9
2017-09-15T11:15:05.920Z,2.6
2017-09-15T11:16:10.005Z,2.7
2017-09-15T11:17:12.393Z,2.9
2017-09-15T11:18:14.567Z,2.7
2017-09-15T11:19:17.842Z,3.8
2017-09-15T11:20:20.048Z,3.8
2017-09-15T11:21:23.141Z,4.1
2017-09-15T11:22:25.506Z,3.1
2017-09-15T11:23:27.864Z,2.7
2017-09-15T11:24:32.356Z,2.5
2017-09-15T11:25:41.286Z,2.9
2017-09-15T11:26:42.833Z,3.1
2017-09-15T11:27:45.981Z,2.8
2017-09-15T11:28:50.249Z,2.9
2017-09-15T11:29:53.360Z,3.1
2017-09-15T11:30:55.786Z,3.6
2017-09-15T11:32:00.292Z,3.2
2017-09-15T11:33:01.919Z,2.5
2017-09-15T11:34:04.408Z,3.0
2017-09-15T11:35:07.880Z,3.1
2017-09-15T11:36:11.967Z,2.8
2017-09-15T11:37:15.557Z,3.3
2017-09-15T11:38:19.579Z,4.8
2017-09-15T11:39:21.763Z,5.2
2017-09-15T11:40:26.288Z,3.4
2017-09-15T11:41:27.871Z,2.5
2017-09-15T11:42:31.530Z,2.1
2017-09-15T11:43:34.343Z,2.3
2017-09-15T11:44:36.854Z,1.9
2017-09-15T11:45:39.788Z,2.4
2017-09-15T11:46:40.861Z,2.4
2017-09-15T11:47:43.940Z,2.5
2017-09-15T11:48:47.290Z,2.2
2017-09-15T11:49:50.478Z,2.4
2017-09-15T11:50:52.149Z,2.3
2017-09-15T11:51:54.396Z,2.8
2017-09-15T11:52:57.834Z,2.3
2017-09-15T11:54:00.078Z,2.4
2017-09-15T11:55:02.163Z,2.2
2017-09-15T11:56:05.292Z,2.1
2017-09-15T11:57:07.112Z,2.3
2017-09-15T11:58:11.315Z,2.4
2017-09-15T11:59:13.861Z,2.9
2017-09-15T12:00:17.851Z,2.4
2017-09-15T12:01:25.388Z,2.4
2017-09-15T12:02:27.057Z,2.7
2017-09-15T12:03:28.762Z,2.4
2017-09-15T12:04:30.436Z,3.0
2017-09-15T12:05:32.597Z,2.5
2017-09-15T12:06:34.298Z,2.2
2017-09-15T12:07:37.954Z,2.5
2017-09-15T12:08:42.078Z,2.3
2017-09-15T12:09:44.957Z,2.4
2017-09-15T12:10:47.157Z,2.1
2017-09-15T12:11:49.468Z,2.6
2017-09-15T12:12:51.852Z,2.5
2017-09-15T12:13:55.058Z,2.4
2017-09-15T12:14:56.807Z,2.3
2017-09-15T12:15:59.393Z,2.5
2017-09-15T12:17:02.017Z,2.5
2017-09-15T12:18:15.176Z,2.6
2017-09-15T12:19:19.907Z,2.9
2017-09-15T12:20:21.635Z,2.8
2017-09-15T12:21:24.873Z,2.8
2017-09-15T12:22:27.779Z,2.5
2017-09-15T12:23:30.078Z,2.3
2017-09-15T12:24:31.743Z,2.5
2017-09-15T12:25:33.390Z,3.0
2017-09-15T12:26:36.046Z,4.2
2017-09-15T12:27:39.167Z,3.3
2017-09-15T12:28:40.840Z,2.6
2017-09-15T12:29:43.299Z,2.4
2017-09-15T12:30:45.083Z,2.7
2017-09-15T12:31:47.589Z,2.0
2017-09-15T12:32:50.799Z,2.1
2017-09-15T12:33:53.362Z,1.7
2017-09-15T12:34:57.378Z,2.3
2017-09-15T12:36:01.517Z,2.3
2017-09-15T12:37:03.781Z,2.1
2017-09-15T12:38:09.886Z,2.2
2017-09-15T12:39:12.078Z,2.0
2017-09-15T12:40:14.572Z,2.6
2017-09-15T12:41:17.952Z,2.4
2017-09-15T12:42:19.629Z,2.8
2017-09-15T12:43:21.656Z,2.1
2017-09-15T12:44:23.889Z,2.0
2017-09-15T12:45:26.083Z,2.1
2017-09-15T12:46:28.987Z,2.0
2017-09-15T12:47:31.509Z,2.0
2017-09-15T12:48:36.200Z,1.9
2017-09-15T12:49:39.906Z,2.0
2017-09-15T12:50:43.075Z,2.0
2017-09-15T12:51:45.409Z,2.4
2017-09-15T12:52:48.535Z,1.9
2017-09-15T12:53:51.978Z,2.0
2017-09-15T12:54:57.446Z,2.3
2017-09-15T12:56:01.961Z,2.1
2017-09-15T12:57:04.929Z,2.6
2017-09-15T12:58:07.153Z,2.8
2017-09-15T12:59:10.271Z,2.4
2017-09-15T13:00:14.559Z,2.2
2017-09-15T13:01:17.654Z,2.0
2017-09-15T13:02:20.135Z,2.3
2017-09-15T13:03:23.007Z,2.3
2017-09-15T13:04:26.369Z,2.1
2017-09-15T13:05:30.304Z,1.7
2017-09-15T13:06:32.041Z,2.2
2017-09-15T13:07:33.714Z,2.0
2017-09-15T13:08:36.117Z,2.1
2017-09-15T13:09:40.467Z,2.1
2017-09-15T13:10:43.032Z,2.3
2017-09-15T13:11:46.003Z,2.3
2017-09-15T13:12:49.444Z,2.2
2017-09-15T13:13:53.502Z,2.1
2017-09-15T13:14:56.354Z,1.8
2017-09-15T13:15:59.929Z,2.5
2017-09-15T13:17:01.599Z,2.1
2017-09-15T13:18:03.270Z,2.0
2017-09-15T13:19:05.904Z,2.2
2017-09-15T13:20:12.658Z,5.8
2017-09-15T13:21:14.922Z,5.0
2017-09-15T13:22:18.310Z,3.7
2017-09-15T13:23:20.756Z,3.0
2017-09-15T13:24:24.812Z,2.5
2017-09-15T13:25:27.238Z,8.2
2017-09-15T13:26:29.578Z,8.2
2017-09-15T13:27:33.084Z,4.6
2017-09-15T13:28:35.363Z,2.6
2017-09-15T13:29:39.458Z,1.9
2017-09-15T13:30:43.311Z,2.0
2017-09-15T13:31:45.081Z,2.0
2017-09-15T13:32:49.630Z,2.2
2017-09-15T13:33:53.415Z,2.4
2017-09-15T13:34:55.812Z,2.5
2017-09-15T13:35:57.543Z,2.4
2017-09-15T13:37:00.115Z,2.8
2017-09-15T13:38:03.403Z,2.0
2017-09-15T13:39:05.066Z,2.0
2017-09-15T13:40:06.741Z,1.6
2017-09-15T13:41:10.822Z,1.4
2017-09-15T13:42:14.322Z,1.7
2017-09-15T13:43:16.409Z,1.7
2017-09-15T13:44:19.161Z,1.9
2017-09-15T13:45:20.836Z,1.8
2017-09-15T13:46:23.858Z,2.0
2017-09-15T13:47:26.288Z,2.4
2017-09-15T13:48:29.170Z,2.3
2017-09-15T13:49:31.343Z,1.9
2017-09-15T13:50:34.037Z,1.8
2017-09-15T13:51:38.822Z,2.0
2017-09-15T13:52:40.432Z,2.1
2017-09-15T13:53:42.716Z,1.9
2017-09-15T13:54:45.004Z,2.1
2017-09-15T13:55:48.111Z,2.2
2017-09-15T14:01:56.331Z,2.6
2017-09-15T14:03:00.089Z,2.5
2017-09-15T14:04:03.288Z,3.1
2017-09-15T14:05:07.135Z,2.8
2017-09-15T14:06:09.860Z,2.9
2017-09-15T14:07:13.687Z,2.4
2017-09-15T14:08:17.401Z,2.4
2017-09-15T14:09:19.719Z,2.6
2017-09-15T14:10:22.928Z,2.5
2017-09-15T14:11:25.703Z,2.5
2017-09-15T14:12:28.810Z,2.4
2017-09-15T14:13:31.811Z,2.4
2017-09-15T14:14:34.246Z,2.2
2017-09-15T14:15:37.408Z,2.6
2017-09-15T14:16:39.858Z,3.1
2017-09-15T14:17:42.199Z,2.1
2017-09-15T14:18:45.026Z,2.0
2017-09-15T14:19:47.945Z,2.5
2017-09-15T14:20:51.790Z,2.8
2017-09-15T14:21:54.264Z,3.3
2017-09-15T14:22:56.522Z,3.3
2017-09-15T14:24:00.799Z,3.1
2017-09-15T14:25:02.464Z,2.9
2017-09-15T14:26:05.716Z,3.7
2017-09-15T14:27:09.660Z,3.1
2017-09-15T14:28:13.280Z,3.8
2017-09-15T14:29:16.730Z,5.0
2017-09-15T14:30:20.765Z,5.0
2017-09-15T14:31:23.946Z,3.6
2017-09-15T14:32:26.915Z,3.8
2017-09-15T14:33:29.783Z,4.0
2017-09-15T14:34:35.202Z,2.6
2017-09-15T14:35:38.933Z,2.9
2017-09-15T14:36:41.381Z,3.0
2017-09-15T14:37:46.339Z,3.1
2017-09-15T14:38:49.259Z,3.0
2017-09-15T14:39:51.790Z,3.1
2017-09-15T14:40:54.864Z,3.4
2017-09-15T14:41:56.526Z,2.9
2017-09-15T14:42:59.021Z,3.3
2017-09-15T14:44:02.808Z,3.2
2017-09-15T14:45:11.222Z,3.3